sensor_id;sensor_type;location;lat;lon;timestamp;temperature;humidity
12039;DHT22;6080;48.818;9.526;2022-07-29T00:01:00;18.60;99.90
12039;DHT22;6080;48.818;9.526;2022-07-29T00:03:26;18.60;99.90
12039;DHT22;6080;48.818;9.526;2022-07-29T00:05:52;18.60;99.90
12039;DHT22;6080;48.818;9.526;2022-07-29T00:08:19;18.60;99.90
12039;DHT22;6080;48.818;9.526;2022-07-29T00:10:46;18.60;99.90
12039;DHT22;6080;48.818;9.526;2022-07-29T00:13:12;18.60;99.90
12039;DHT22;6080;48.818;9.526;2022-07-29T00:15:38;18.60;99.90
12039;DHT22;6080;48.818;9.526;2022-07-29T00:18:04;18.60;99.90
12039;DHT22;6080;48.818;9.526;2022-07-29T00:20:30;18.50;99.90
12039;DHT22;6080;48.818;9.526;2022-07-29T00:22:56;18.50;99.90
12039;DHT22;6080;48.818;9.526;2022-07-29T00:25:22;18.50;99.90
12039;DHT22;6080;48.818;9.526;2022-07-29T00:27:47;18.50;99.90
12039;DHT22;6080;48.818;9.526;2022-07-29T00:30:14;18.50;99.90
12039;DHT22;6080;48.818;9.526;2022-07-29T00:32:40;18.50;99.90
12039;DHT22;6080;48.818;9.526;2022-07-29T00:35:06;18.50;99.90
12039;DHT22;6080;48.818;9.526;2022-07-29T00:37:51;18.50;99.90
12039;DHT22;6080;48.818;9.526;2022-07-29T00:40:17;18.50;99.90
12039;DHT22;6080;48.818;9.526;2022-07-29T00:42:47;18.50;99.90
12039;DHT22;6080;48.818;9.526;2022-07-29T00:45:13;18.50;99.90
12039;DHT22;6080;48.818;9.526;2022-07-29T00:47:40;18.50;99.90
12039;DHT22;6080;48.818;9.526;2022-07-29T00:50:07;18.50;99.90
12039;DHT22;6080;48.818;9.526;2022-07-29T00:52:36;18.60;99.90
12039;DHT22;6080;48.818;9.526;2022-07-29T00:55:03;18.60;99.90
12039;DHT22;6080;48.818;9.526;2022-07-29T00:57:29;18.60;99.90
12039;DHT22;6080;48.818;9.526;2022-07-29T00:59:55;18.60;99.90
12039;DHT22;6080;48.818;9.526;2022-07-29T01:02:21;18.60;99.90
12039;DHT22;6080;48.818;9.526;2022-07-29T01:04:48;18.60;99.90
12039;DHT22;6080;48.818;9.526;2022-07-29T01:07:14;18.60;99.90
12039;DHT22;6080;48.818;9.526;2022-07-29T01:09:40;18.70;99.90
12039;DHT22;6080;48.818;9.526;2022-07-29T01:12:07;18.70;99.90
12039;DHT22;6080;48.818;9.526;2022-07-29T01:14:34;18.70;99.90
12039;DHT22;6080;48.818;9.526;2022-07-29T01:34:05;18.40;99.90
12039;DHT22;6080;48.818;9.526;2022-07-29T01:39:12;18.30;99.90
12039;DHT22;6080;48.818;9.526;2022-07-29T01:42:17;18.20;99.90
12039;DHT22;6080;48.818;9.526;2022-07-29T01:48:06;18.10;99.90
12039;DHT22;6080;48.818;9.526;2022-07-29T01:50:37;18.10;99.90
12039;DHT22;6080;48.818;9.526;2022-07-29T01:53:06;18.00;99.90
12039;DHT22;6080;48.818;9.526;2022-07-29T01:55:36;18.00;99.90
12039;DHT22;6080;48.818;9.526;2022-07-29T01:58:05;18.00;99.90
12039;DHT22;6080;48.818;9.526;2022-07-29T02:00:33;17.90;99.90
12039;DHT22;6080;48.818;9.526;2022-07-29T02:03:04;17.80;99.90
12039;DHT22;6080;48.818;9.526;2022-07-29T02:05:32;17.80;99.90
12039;DHT22;6080;48.818;9.526;2022-07-29T02:08:00;17.80;99.90
12039;DHT22;6080;48.818;9.526;2022-07-29T02:10:30;17.70;99.90
12039;DHT22;6080;48.818;9.526;2022-07-29T02:12:57;17.70;99.90
12039;DHT22;6080;48.818;9.526;2022-07-29T02:15:28;17.70;99.90
12039;DHT22;6080;48.818;9.526;2022-07-29T02:17:58;17.60;99.90
12039;DHT22;6080;48.818;9.526;2022-07-29T02:20:26;17.60;99.90
12039;DHT22;6080;48.818;9.526;2022-07-29T02:22:53;17.60;99.90
12039;DHT22;6080;48.818;9.526;2022-07-29T02:25:21;17.50;99.90
12039;DHT22;6080;48.818;9.526;2022-07-29T02:27:50;17.50;99.90
12039;DHT22;6080;48.818;9.526;2022-07-29T02:30:18;17.50;99.90
12039;DHT22;6080;48.818;9.526;2022-07-29T02:32:45;17.40;99.90
12039;DHT22;6080;48.818;9.526;2022-07-29T02:35:14;17.40;99.90
12039;DHT22;6080;48.818;9.526;2022-07-29T02:37:43;17.30;99.90
12039;DHT22;6080;48.818;9.526;2022-07-29T02:40:13;17.30;99.90
12039;DHT22;6080;48.818;9.526;2022-07-29T02:42:42;17.20;99.90
12039;DHT22;6080;48.818;9.526;2022-07-29T02:45:10;17.20;99.90
12039;DHT22;6080;48.818;9.526;2022-07-29T02:47:48;17.10;99.90
12039;DHT22;6080;48.818;9.526;2022-07-29T02:50:30;17.00;99.90
12039;DHT22;6080;48.818;9.526;2022-07-29T02:53:14;16.90;99.90
12039;DHT22;6080;48.818;9.526;2022-07-29T02:56:06;16.90;99.90
12039;DHT22;6080;48.818;9.526;2022-07-29T02:58:51;16.90;99.90
12039;DHT22;6080;48.818;9.526;2022-07-29T03:01:25;16.90;99.90
12039;DHT22;6080;48.818;9.526;2022-07-29T03:03:54;16.90;99.90
12039;DHT22;6080;48.818;9.526;2022-07-29T03:06:23;16.90;99.90
12039;DHT22;6080;48.818;9.526;2022-07-29T03:08:51;16.80;99.90
12039;DHT22;6080;48.818;9.526;2022-07-29T03:11:18;16.80;99.90
12039;DHT22;6080;48.818;9.526;2022-07-29T03:13:45;16.80;99.90
12039;DHT22;6080;48.818;9.526;2022-07-29T03:16:11;16.80;99.90
12039;DHT22;6080;48.818;9.526;2022-07-29T03:18:38;16.80;99.90
12039;DHT22;6080;48.818;9.526;2022-07-29T03:21:04;16.80;99.90
12039;DHT22;6080;48.818;9.526;2022-07-29T03:23:30;16.90;99.90
12039;DHT22;6080;48.818;9.526;2022-07-29T03:25:56;16.70;99.90
12039;DHT22;6080;48.818;9.526;2022-07-29T03:28:22;16.60;99.90
12039;DHT22;6080;48.818;9.526;2022-07-29T03:30:49;16.50;99.90
12039;DHT22;6080;48.818;9.526;2022-07-29T03:33:15;16.60;99.90
12039;DHT22;6080;48.818;9.526;2022-07-29T03:35:41;16.70;99.90
12039;DHT22;6080;48.818;9.526;2022-07-29T03:38:07;16.70;99.90
12039;DHT22;6080;48.818;9.526;2022-07-29T03:40:54;16.70;99.90
12039;DHT22;6080;48.818;9.526;2022-07-29T03:43:22;16.70;99.90
12039;DHT22;6080;48.818;9.526;2022-07-29T03:45:51;16.60;99.90
12039;DHT22;6080;48.818;9.526;2022-07-29T03:48:21;16.60;99.90
12039;DHT22;6080;48.818;9.526;2022-07-29T03:50:48;16.60;99.90
12039;DHT22;6080;48.818;9.526;2022-07-29T03:53:15;16.50;99.90
12039;DHT22;6080;48.818;9.526;2022-07-29T03:55:44;16.50;99.90
12039;DHT22;6080;48.818;9.526;2022-07-29T03:58:12;16.60;99.90
12039;DHT22;6080;48.818;9.526;2022-07-29T04:00:39;16.60;99.90
12039;DHT22;6080;48.818;9.526;2022-07-29T04:03:05;16.50;99.90
12039;DHT22;6080;48.818;9.526;2022-07-29T04:05:31;16.50;99.90
12039;DHT22;6080;48.818;9.526;2022-07-29T04:07:57;16.50;99.90
12039;DHT22;6080;48.818;9.526;2022-07-29T04:10:23;16.50;99.90
12039;DHT22;6080;48.818;9.526;2022-07-29T04:12:49;16.50;99.90
12039;DHT22;6080;48.818;9.526;2022-07-29T04:15:15;16.50;99.90
12039;DHT22;6080;48.818;9.526;2022-07-29T04:17:41;16.50;99.90
12039;DHT22;6080;48.818;9.526;2022-07-29T04:20:07;16.50;99.90
12039;DHT22;6080;48.818;9.526;2022-07-29T04:22:33;16.50;99.90
12039;DHT22;6080;48.818;9.526;2022-07-29T04:24:59;16.60;99.90
12039;DHT22;6080;48.818;9.526;2022-07-29T04:27:25;16.60;99.90
12039;DHT22;6080;48.818;9.526;2022-07-29T04:29:51;16.60;99.90
12039;DHT22;6080;48.818;9.526;2022-07-29T04:32:17;16.70;99.90
12039;DHT22;6080;48.818;9.526;2022-07-29T04:34:43;16.70;99.90
12039;DHT22;6080;48.818;9.526;2022-07-29T04:37:11;16.70;99.90
12039;DHT22;6080;48.818;9.526;2022-07-29T04:39:36;16.70;99.90
12039;DHT22;6080;48.818;9.526;2022-07-29T04:42:02;16.70;99.90
12039;DHT22;6080;48.818;9.526;2022-07-29T04:44:29;16.80;99.90
12039;DHT22;6080;48.818;9.526;2022-07-29T04:46:56;16.80;99.90
12039;DHT22;6080;48.818;9.526;2022-07-29T04:49:22;16.90;99.90
12039;DHT22;6080;48.818;9.526;2022-07-29T04:51:48;16.90;99.90
12039;DHT22;6080;48.818;9.526;2022-07-29T04:54:14;17.00;99.90
12039;DHT22;6080;48.818;9.526;2022-07-29T04:56:40;17.10;99.90
12039;DHT22;6080;48.818;9.526;2022-07-29T04:59:07;17.10;99.90
12039;DHT22;6080;48.818;9.526;2022-07-29T05:01:33;17.20;99.90
12039;DHT22;6080;48.818;9.526;2022-07-29T05:03:59;17.20;99.90
12039;DHT22;6080;48.818;9.526;2022-07-29T05:06:25;17.20;99.90
12039;DHT22;6080;48.818;9.526;2022-07-29T05:08:51;17.10;99.90
12039;DHT22;6080;48.818;9.526;2022-07-29T05:11:17;17.10;99.90
12039;DHT22;6080;48.818;9.526;2022-07-29T05:13:43;17.10;99.90
12039;DHT22;6080;48.818;9.526;2022-07-29T05:16:09;17.10;99.90
12039;DHT22;6080;48.818;9.526;2022-07-29T05:18:35;17.10;99.90
12039;DHT22;6080;48.818;9.526;2022-07-29T05:21:01;17.10;99.90
12039;DHT22;6080;48.818;9.526;2022-07-29T05:23:26;17.20;99.90
12039;DHT22;6080;48.818;9.526;2022-07-29T05:25:52;17.30;99.90
12039;DHT22;6080;48.818;9.526;2022-07-29T05:28:18;17.40;99.90
12039;DHT22;6080;48.818;9.526;2022-07-29T05:30:45;17.60;99.90
12039;DHT22;6080;48.818;9.526;2022-07-29T05:33:11;17.80;99.90
12039;DHT22;6080;48.818;9.526;2022-07-29T05:35:36;17.90;99.90
12039;DHT22;6080;48.818;9.526;2022-07-29T05:38:03;18.00;99.90
12039;DHT22;6080;48.818;9.526;2022-07-29T05:40:30;18.10;99.90
12039;DHT22;6080;48.818;9.526;2022-07-29T05:42:56;18.20;99.90
12039;DHT22;6080;48.818;9.526;2022-07-29T05:45:22;18.30;99.90
12039;DHT22;6080;48.818;9.526;2022-07-29T05:47:49;18.40;99.90
12039;DHT22;6080;48.818;9.526;2022-07-29T05:50:15;18.50;99.90
12039;DHT22;6080;48.818;9.526;2022-07-29T05:52:41;18.50;99.90
12039;DHT22;6080;48.818;9.526;2022-07-29T05:55:07;18.70;99.90
12039;DHT22;6080;48.818;9.526;2022-07-29T05:57:33;18.90;99.90
12039;DHT22;6080;48.818;9.526;2022-07-29T05:59:59;19.10;99.90
12039;DHT22;6080;48.818;9.526;2022-07-29T06:02:25;19.10;99.90
12039;DHT22;6080;48.818;9.526;2022-07-29T06:04:51;19.30;99.90
12039;DHT22;6080;48.818;9.526;2022-07-29T06:07:17;19.70;99.90
12039;DHT22;6080;48.818;9.526;2022-07-29T06:09:44;20.40;99.90
12039;DHT22;6080;48.818;9.526;2022-07-29T06:12:10;21.00;99.90
12039;DHT22;6080;48.818;9.526;2022-07-29T06:14:36;21.30;99.90
12039;DHT22;6080;48.818;9.526;2022-07-29T06:17:04;21.20;99.90
12039;DHT22;6080;48.818;9.526;2022-07-29T06:19:31;21.00;99.90
12039;DHT22;6080;48.818;9.526;2022-07-29T06:21:59;21.10;99.90
12039;DHT22;6080;48.818;9.526;2022-07-29T06:24:24;21.10;99.90
12039;DHT22;6080;48.818;9.526;2022-07-29T06:26:50;21.50;99.90
12039;DHT22;6080;48.818;9.526;2022-07-29T06:29:16;22.10;99.90
12039;DHT22;6080;48.818;9.526;2022-07-29T06:31:42;22.00;99.90
12039;DHT22;6080;48.818;9.526;2022-07-29T06:34:08;21.70;99.90
12039;DHT22;6080;48.818;9.526;2022-07-29T06:36:35;21.80;99.90
12039;DHT22;6080;48.818;9.526;2022-07-29T06:39:06;22.10;99.90
12039;DHT22;6080;48.818;9.526;2022-07-29T06:41:33;22.20;99.90
12039;DHT22;6080;48.818;9.526;2022-07-29T06:43:59;22.60;99.90
12039;DHT22;6080;48.818;9.526;2022-07-29T06:46:25;23.30;99.90
12039;DHT22;6080;48.818;9.526;2022-07-29T06:48:51;23.90;99.90
12039;DHT22;6080;48.818;9.526;2022-07-29T06:51:18;24.30;99.90
12039;DHT22;6080;48.818;9.526;2022-07-29T06:53:43;24.60;99.90
12039;DHT22;6080;48.818;9.526;2022-07-29T06:56:09;24.60;99.90
12039;DHT22;6080;48.818;9.526;2022-07-29T06:58:35;24.90;99.90
12039;DHT22;6080;48.818;9.526;2022-07-29T07:01:03;25.20;99.90
12039;DHT22;6080;48.818;9.526;2022-07-29T07:03:30;25.70;99.90
12039;DHT22;6080;48.818;9.526;2022-07-29T07:05:56;25.90;99.90
12039;DHT22;6080;48.818;9.526;2022-07-29T07:08:23;25.90;99.90
12039;DHT22;6080;48.818;9.526;2022-07-29T07:10:50;26.40;99.90
12039;DHT22;6080;48.818;9.526;2022-07-29T07:13:16;26.40;99.90
12039;DHT22;6080;48.818;9.526;2022-07-29T07:15:43;26.00;99.90
12039;DHT22;6080;48.818;9.526;2022-07-29T07:18:11;26.00;99.90
12039;DHT22;6080;48.818;9.526;2022-07-29T07:20:37;26.00;99.90
12039;DHT22;6080;48.818;9.526;2022-07-29T07:23:03;26.00;99.90
12039;DHT22;6080;48.818;9.526;2022-07-29T07:25:30;25.90;99.90
12039;DHT22;6080;48.818;9.526;2022-07-29T07:27:56;25.30;99.90
12039;DHT22;6080;48.818;9.526;2022-07-29T07:30:22;24.90;99.90
12039;DHT22;6080;48.818;9.526;2022-07-29T07:32:48;24.60;99.90
12039;DHT22;6080;48.818;9.526;2022-07-29T07:35:14;24.30;99.90
12039;DHT22;6080;48.818;9.526;2022-07-29T07:37:40;24.00;99.90
12039;DHT22;6080;48.818;9.526;2022-07-29T07:40:08;23.90;99.90
12039;DHT22;6080;48.818;9.526;2022-07-29T07:42:35;24.00;99.90
12039;DHT22;6080;48.818;9.526;2022-07-29T07:45:01;23.90;99.90
12039;DHT22;6080;48.818;9.526;2022-07-29T07:47:27;24.50;99.90
12039;DHT22;6080;48.818;9.526;2022-07-29T07:49:53;25.50;99.90
12039;DHT22;6080;48.818;9.526;2022-07-29T07:52:20;25.80;99.90
12039;DHT22;6080;48.818;9.526;2022-07-29T07:54:46;25.70;99.90
12039;DHT22;6080;48.818;9.526;2022-07-29T07:57:13;25.50;99.90
12039;DHT22;6080;48.818;9.526;2022-07-29T07:59:40;25.40;99.90
12039;DHT22;6080;48.818;9.526;2022-07-29T08:02:07;25.40;99.90
12039;DHT22;6080;48.818;9.526;2022-07-29T08:04:34;25.40;99.90
12039;DHT22;6080;48.818;9.526;2022-07-29T08:07:00;25.20;99.90
12039;DHT22;6080;48.818;9.526;2022-07-29T08:09:27;24.90;99.90
12039;DHT22;6080;48.818;9.526;2022-07-29T08:11:54;25.20;99.90
12039;DHT22;6080;48.818;9.526;2022-07-29T08:14:20;25.90;99.90
12039;DHT22;6080;48.818;9.526;2022-07-29T08:16:46;26.50;99.90
12039;DHT22;6080;48.818;9.526;2022-07-29T08:19:11;27.10;99.90
12039;DHT22;6080;48.818;9.526;2022-07-29T08:21:37;27.70;99.90
12039;DHT22;6080;48.818;9.526;2022-07-29T08:24:04;28.40;99.90
12039;DHT22;6080;48.818;9.526;2022-07-29T08:26:50;28.80;99.90
12039;DHT22;6080;48.818;9.526;2022-07-29T08:29:16;29.40;99.90
12039;DHT22;6080;48.818;9.526;2022-07-29T08:31:42;29.80;99.90
12039;DHT22;6080;48.818;9.526;2022-07-29T08:34:08;30.20;99.90
12039;DHT22;6080;48.818;9.526;2022-07-29T08:36:34;30.70;99.90
12039;DHT22;6080;48.818;9.526;2022-07-29T08:39:02;30.50;99.90
12039;DHT22;6080;48.818;9.526;2022-07-29T08:41:28;30.20;99.90
12039;DHT22;6080;48.818;9.526;2022-07-29T08:43:55;30.00;99.90
12039;DHT22;6080;48.818;9.526;2022-07-29T08:46:22;30.10;99.70
12039;DHT22;6080;48.818;9.526;2022-07-29T08:48:48;30.00;99.90
12039;DHT22;6080;48.818;9.526;2022-07-29T08:51:17;30.50;99.90
12039;DHT22;6080;48.818;9.526;2022-07-29T08:53:44;30.80;99.90
12039;DHT22;6080;48.818;9.526;2022-07-29T08:56:15;30.80;99.90
12039;DHT22;6080;48.818;9.526;2022-07-29T08:58:45;30.80;99.90
12039;DHT22;6080;48.818;9.526;2022-07-29T09:01:15;30.70;99.90
12039;DHT22;6080;48.818;9.526;2022-07-29T09:03:43;30.40;98.50
12039;DHT22;6080;48.818;9.526;2022-07-29T09:06:14;30.30;99.80
12039;DHT22;6080;48.818;9.526;2022-07-29T09:08:40;30.70;99.10
12039;DHT22;6080;48.818;9.526;2022-07-29T09:11:06;30.90;98.60
12039;DHT22;6080;48.818;9.526;2022-07-29T09:13:33;31.00;98.50
12039;DHT22;6080;48.818;9.526;2022-07-29T09:15:59;31.00;98.10
12039;DHT22;6080;48.818;9.526;2022-07-29T09:18:44;31.20;95.70
12039;DHT22;6080;48.818;9.526;2022-07-29T09:21:15;31.60;96.80
12039;DHT22;6080;48.818;9.526;2022-07-29T09:26:35;32.10;96.10
12039;DHT22;6080;48.818;9.526;2022-07-29T09:29:08;32.10;94.50
12039;DHT22;6080;48.818;9.526;2022-07-29T09:31:37;31.50;95.60
12039;DHT22;6080;48.818;9.526;2022-07-29T09:34:04;31.60;95.70
12039;DHT22;6080;48.818;9.526;2022-07-29T09:36:30;31.90;95.60
12039;DHT22;6080;48.818;9.526;2022-07-29T09:39:00;32.30;94.50
12039;DHT22;6080;48.818;9.526;2022-07-29T09:41:27;32.30;95.00
12039;DHT22;6080;48.818;9.526;2022-07-29T09:43:54;31.80;93.50
12039;DHT22;6080;48.818;9.526;2022-07-29T09:46:20;31.50;94.30
12039;DHT22;6080;48.818;9.526;2022-07-29T09:49:12;31.20;94.80
12039;DHT22;6080;48.818;9.526;2022-07-29T09:51:38;31.10;95.20
12039;DHT22;6080;48.818;9.526;2022-07-29T09:54:24;31.60;94.50
12039;DHT22;6080;48.818;9.526;2022-07-29T09:56:52;32.10;92.10
12039;DHT22;6080;48.818;9.526;2022-07-29T09:59:18;32.20;92.60
12039;DHT22;6080;48.818;9.526;2022-07-29T10:01:46;32.30;91.10
12039;DHT22;6080;48.818;9.526;2022-07-29T10:04:11;32.70;90.20
12039;DHT22;6080;48.818;9.526;2022-07-29T10:07:00;32.90;88.40
12039;DHT22;6080;48.818;9.526;2022-07-29T10:09:27;33.00;90.70
12039;DHT22;6080;48.818;9.526;2022-07-29T10:14:33;33.90;85.30
12039;DHT22;6080;48.818;9.526;2022-07-29T10:16:59;34.40;87.50
12039;DHT22;6080;48.818;9.526;2022-07-29T10:19:28;34.40;85.00
12039;DHT22;6080;48.818;9.526;2022-07-29T10:21:57;34.60;83.70
12039;DHT22;6080;48.818;9.526;2022-07-29T10:24:25;34.00;79.80
12039;DHT22;6080;48.818;9.526;2022-07-29T10:26:54;33.60;82.30
12039;DHT22;6080;48.818;9.526;2022-07-29T10:29:21;32.70;81.60
12039;DHT22;6080;48.818;9.526;2022-07-29T10:32:11;32.30;82.30
12039;DHT22;6080;48.818;9.526;2022-07-29T10:40:46;31.80;83.90
12039;DHT22;6080;48.818;9.526;2022-07-29T10:43:36;31.80;83.90
12039;DHT22;6080;48.818;9.526;2022-07-29T10:46:04;32.10;84.80
12039;DHT22;6080;48.818;9.526;2022-07-29T10:48:30;32.60;80.40
12039;DHT22;6080;48.818;9.526;2022-07-29T10:51:03;33.20;83.10
12039;DHT22;6080;48.818;9.526;2022-07-29T10:53:49;33.10;80.90
12039;DHT22;6080;48.818;9.526;2022-07-29T10:56:29;32.80;82.10
12039;DHT22;6080;48.818;9.526;2022-07-29T11:01:50;32.80;82.60
12039;DHT22;6080;48.818;9.526;2022-07-29T11:07:09;32.20;80.70
12039;DHT22;6080;48.818;9.526;2022-07-29T11:09:34;31.70;82.00
12039;DHT22;6080;48.818;9.526;2022-07-29T11:12:01;31.30;82.20
12039;DHT22;6080;48.818;9.526;2022-07-29T11:17:17;30.70;85.30
12039;DHT22;6080;48.818;9.526;2022-07-29T11:19:44;30.70;83.10
12039;DHT22;6080;48.818;9.526;2022-07-29T11:22:11;30.50;83.80
12039;DHT22;6080;48.818;9.526;2022-07-29T11:24:37;30.20;88.00
12039;DHT22;6080;48.818;9.526;2022-07-29T11:29:47;29.20;90.10
12039;DHT22;6080;48.818;9.526;2022-07-29T11:32:15;28.60;91.20
12039;DHT22;6080;48.818;9.526;2022-07-29T11:34:43;28.10;91.60
12039;DHT22;6080;48.818;9.526;2022-07-29T11:37:13;27.70;92.10
12039;DHT22;6080;48.818;9.526;2022-07-29T11:47:28;26.20;94.20
12039;DHT22;6080;48.818;9.526;2022-07-29T11:49:56;26.00;94.90
12039;DHT22;6080;48.818;9.526;2022-07-29T11:52:23;25.80;95.10
12039;DHT22;6080;48.818;9.526;2022-07-29T11:54:58;25.60;96.20
12039;DHT22;6080;48.818;9.526;2022-07-29T11:57:27;25.30;98.70
12039;DHT22;6080;48.818;9.526;2022-07-29T11:59:53;24.60;99.90
12039;DHT22;6080;48.818;9.526;2022-07-29T12:02:20;23.90;99.90
12039;DHT22;6080;48.818;9.526;2022-07-29T12:04:54;23.40;99.90
12039;DHT22;6080;48.818;9.526;2022-07-29T12:07:29;23.00;99.90
12039;DHT22;6080;48.818;9.526;2022-07-29T12:09:56;22.80;99.90
12039;DHT22;6080;48.818;9.526;2022-07-29T12:12:22;22.60;99.90
12039;DHT22;6080;48.818;9.526;2022-07-29T12:14:48;22.60;99.90
12039;DHT22;6080;48.818;9.526;2022-07-29T12:17:31;22.50;99.90
12039;DHT22;6080;48.818;9.526;2022-07-29T12:19:59;22.40;99.90
12039;DHT22;6080;48.818;9.526;2022-07-29T12:22:27;22.40;99.90
12039;DHT22;6080;48.818;9.526;2022-07-29T12:24:54;22.30;99.90
12039;DHT22;6080;48.818;9.526;2022-07-29T12:27:20;22.30;99.90
12039;DHT22;6080;48.818;9.526;2022-07-29T12:30:02;22.20;99.90
12039;DHT22;6080;48.818;9.526;2022-07-29T12:32:55;22.10;99.90
12039;DHT22;6080;48.818;9.526;2022-07-29T12:35:21;22.20;99.90
12039;DHT22;6080;48.818;9.526;2022-07-29T12:37:48;22.20;99.90
12039;DHT22;6080;48.818;9.526;2022-07-29T12:40:16;22.20;99.90
12039;DHT22;6080;48.818;9.526;2022-07-29T12:43:05;22.50;99.90
12039;DHT22;6080;48.818;9.526;2022-07-29T12:45:31;22.60;99.90
12039;DHT22;6080;48.818;9.526;2022-07-29T12:47:57;22.70;99.90
12039;DHT22;6080;48.818;9.526;2022-07-29T12:50:23;22.60;99.90
12039;DHT22;6080;48.818;9.526;2022-07-29T12:52:49;22.50;99.90
12039;DHT22;6080;48.818;9.526;2022-07-29T12:55:15;22.40;99.90
12039;DHT22;6080;48.818;9.526;2022-07-29T12:57:45;22.10;99.90
12039;DHT22;6080;48.818;9.526;2022-07-29T13:00:13;21.90;99.90
12039;DHT22;6080;48.818;9.526;2022-07-29T13:02:41;21.90;99.90
12039;DHT22;6080;48.818;9.526;2022-07-29T13:05:09;21.90;99.90
12039;DHT22;6080;48.818;9.526;2022-07-29T13:07:36;22.00;99.90
12039;DHT22;6080;48.818;9.526;2022-07-29T13:10:21;21.80;99.90
12039;DHT22;6080;48.818;9.526;2022-07-29T13:13:08;21.80;99.90
12039;DHT22;6080;48.818;9.526;2022-07-29T13:15:42;21.70;99.90
12039;DHT22;6080;48.818;9.526;2022-07-29T13:18:30;21.70;99.90
12039;DHT22;6080;48.818;9.526;2022-07-29T13:20:57;21.70;99.90
12039;DHT22;6080;48.818;9.526;2022-07-29T13:23:35;21.60;99.90
12039;DHT22;6080;48.818;9.526;2022-07-29T13:26:08;21.60;99.90
12039;DHT22;6080;48.818;9.526;2022-07-29T13:28:34;21.60;99.90
12039;DHT22;6080;48.818;9.526;2022-07-29T13:31:01;21.80;99.90
12039;DHT22;6080;48.818;9.526;2022-07-29T13:33:27;21.90;99.90
12039;DHT22;6080;48.818;9.526;2022-07-29T13:35:52;22.10;99.90
12039;DHT22;6080;48.818;9.526;2022-07-29T13:38:18;22.20;99.90
12039;DHT22;6080;48.818;9.526;2022-07-29T13:40:44;22.20;99.90
12039;DHT22;6080;48.818;9.526;2022-07-29T13:43:11;22.20;99.90
12039;DHT22;6080;48.818;9.526;2022-07-29T13:45:37;22.20;99.90
12039;DHT22;6080;48.818;9.526;2022-07-29T13:48:04;22.20;99.90
12039;DHT22;6080;48.818;9.526;2022-07-29T13:50:32;22.10;99.90
12039;DHT22;6080;48.818;9.526;2022-07-29T13:52:58;22.10;99.90
12039;DHT22;6080;48.818;9.526;2022-07-29T13:55:24;22.10;99.90
12039;DHT22;6080;48.818;9.526;2022-07-29T13:57:50;22.20;99.90
12039;DHT22;6080;48.818;9.526;2022-07-29T14:00:16;22.20;99.90
12039;DHT22;6080;48.818;9.526;2022-07-29T14:02:42;22.30;99.90
12039;DHT22;6080;48.818;9.526;2022-07-29T14:05:08;22.30;99.90
12039;DHT22;6080;48.818;9.526;2022-07-29T14:07:36;22.30;99.90
12039;DHT22;6080;48.818;9.526;2022-07-29T14:10:04;22.10;99.90
12039;DHT22;6080;48.818;9.526;2022-07-29T14:12:30;21.80;99.90
12039;DHT22;6080;48.818;9.526;2022-07-29T14:14:56;21.60;99.90
12039;DHT22;6080;48.818;9.526;2022-07-29T14:17:22;21.50;99.90
12039;DHT22;6080;48.818;9.526;2022-07-29T14:19:48;21.40;99.90
12039;DHT22;6080;48.818;9.526;2022-07-29T14:22:14;21.40;99.90
12039;DHT22;6080;48.818;9.526;2022-07-29T14:24:40;21.20;99.90
12039;DHT22;6080;48.818;9.526;2022-07-29T14:27:07;21.00;99.90
12039;DHT22;6080;48.818;9.526;2022-07-29T14:29:33;20.90;99.90
12039;DHT22;6080;48.818;9.526;2022-07-29T14:31:59;20.90;99.90
12039;DHT22;6080;48.818;9.526;2022-07-29T14:34:25;20.90;99.90
12039;DHT22;6080;48.818;9.526;2022-07-29T14:36:51;20.90;99.90
12039;DHT22;6080;48.818;9.526;2022-07-29T14:39:20;21.10;99.90
12039;DHT22;6080;48.818;9.526;2022-07-29T14:41:45;21.20;99.90
12039;DHT22;6080;48.818;9.526;2022-07-29T14:44:11;21.40;99.90
12039;DHT22;6080;48.818;9.526;2022-07-29T14:46:37;21.80;99.90
12039;DHT22;6080;48.818;9.526;2022-07-29T14:49:03;22.00;99.90
12039;DHT22;6080;48.818;9.526;2022-07-29T14:51:30;22.20;99.90
12039;DHT22;6080;48.818;9.526;2022-07-29T14:53:55;22.30;99.90
12039;DHT22;6080;48.818;9.526;2022-07-29T14:56:21;22.40;99.90
12039;DHT22;6080;48.818;9.526;2022-07-29T14:58:48;22.50;99.90
12039;DHT22;6080;48.818;9.526;2022-07-29T15:01:14;22.50;99.90
12039;DHT22;6080;48.818;9.526;2022-07-29T15:03:39;22.70;99.90
12039;DHT22;6080;48.818;9.526;2022-07-29T15:06:05;22.80;99.90
12039;DHT22;6080;48.818;9.526;2022-07-29T15:08:31;23.10;99.90
12039;DHT22;6080;48.818;9.526;2022-07-29T15:10:57;23.20;99.90
12039;DHT22;6080;48.818;9.526;2022-07-29T15:13:25;23.30;99.90
12039;DHT22;6080;48.818;9.526;2022-07-29T15:15:51;23.50;99.90
12039;DHT22;6080;48.818;9.526;2022-07-29T15:18:17;23.60;99.90
12039;DHT22;6080;48.818;9.526;2022-07-29T15:20:43;23.60;99.90
12039;DHT22;6080;48.818;9.526;2022-07-29T15:23:11;23.50;99.90
12039;DHT22;6080;48.818;9.526;2022-07-29T15:25:38;23.50;99.90
12039;DHT22;6080;48.818;9.526;2022-07-29T15:28:05;23.40;99.90
12039;DHT22;6080;48.818;9.526;2022-07-29T15:30:34;23.40;99.90
12039;DHT22;6080;48.818;9.526;2022-07-29T15:33:09;23.50;99.90
12039;DHT22;6080;48.818;9.526;2022-07-29T15:35:37;23.50;99.90
12039;DHT22;6080;48.818;9.526;2022-07-29T15:38:03;23.50;99.90
12039;DHT22;6080;48.818;9.526;2022-07-29T15:40:29;23.40;99.90
12039;DHT22;6080;48.818;9.526;2022-07-29T15:42:55;23.30;99.90
12039;DHT22;6080;48.818;9.526;2022-07-29T15:45:21;23.30;99.90
12039;DHT22;6080;48.818;9.526;2022-07-29T15:47:47;23.30;99.90
12039;DHT22;6080;48.818;9.526;2022-07-29T15:50:13;23.30;99.90
12039;DHT22;6080;48.818;9.526;2022-07-29T15:52:42;23.30;99.90
12039;DHT22;6080;48.818;9.526;2022-07-29T15:55:08;23.40;99.90
12039;DHT22;6080;48.818;9.526;2022-07-29T15:57:35;23.60;99.90
12039;DHT22;6080;48.818;9.526;2022-07-29T16:00:02;23.80;99.90
12039;DHT22;6080;48.818;9.526;2022-07-29T16:02:28;24.00;99.90
12039;DHT22;6080;48.818;9.526;2022-07-29T16:04:54;24.10;99.90
12039;DHT22;6080;48.818;9.526;2022-07-29T16:07:19;24.20;99.90
12039;DHT22;6080;48.818;9.526;2022-07-29T16:09:45;24.30;99.90
12039;DHT22;6080;48.818;9.526;2022-07-29T16:12:11;24.50;99.90
12039;DHT22;6080;48.818;9.526;2022-07-29T16:14:37;24.40;99.90
12039;DHT22;6080;48.818;9.526;2022-07-29T16:17:03;24.40;99.90
12039;DHT22;6080;48.818;9.526;2022-07-29T16:19:29;24.50;99.90
12039;DHT22;6080;48.818;9.526;2022-07-29T16:21:56;24.40;99.90
12039;DHT22;6080;48.818;9.526;2022-07-29T16:24:21;24.40;99.90
12039;DHT22;6080;48.818;9.526;2022-07-29T16:26:49;24.50;99.90
12039;DHT22;6080;48.818;9.526;2022-07-29T16:29:16;24.60;99.90
12039;DHT22;6080;48.818;9.526;2022-07-29T16:31:43;24.70;99.90
12039;DHT22;6080;48.818;9.526;2022-07-29T16:34:09;24.80;99.90
12039;DHT22;6080;48.818;9.526;2022-07-29T16:36:35;24.80;99.90
12039;DHT22;6080;48.818;9.526;2022-07-29T16:39:01;24.70;99.90
12039;DHT22;6080;48.818;9.526;2022-07-29T16:41:27;24.60;99.90
12039;DHT22;6080;48.818;9.526;2022-07-29T16:43:54;24.50;99.90